createdAt,value
2018-08-30T00:08:26.318Z,100954.66
2018-08-30T00:11:11.013Z,100957.03
2018-08-30T00:13:50.324Z,100956.02
2018-08-30T00:16:40.505Z,100951.32
2018-08-30T01:14:38.935Z,100950.34
2018-08-30T01:17:16.908Z,100944.27
2018-08-30T01:19:58.752Z,100946.02
2018-08-30T01:22:37.008Z,100933.78
2018-08-30T01:25:09.671Z,100942.79
2018-08-30T01:27:58.631Z,100946.61
2018-08-30T01:30:33.762Z,100954.25
2018-08-30T01:33:22.539Z,100944.10
2018-08-30T01:36:05.285Z,100958.74
2018-08-30T01:41:43.307Z,100975.15
2018-08-30T01:44:25.728Z,100982.67
2018-08-30T01:47:00.386Z,100981.31
2018-08-30T01:52:33.793Z,100997.05
2018-08-30T02:00:51.760Z,100981.20
2018-08-30T02:03:23.861Z,100977.91
2018-08-30T02:05:56.482Z,100978.30
2018-08-30T02:08:27.860Z,100979.55
2018-08-30T02:10:58.507Z,100970.97
2018-08-30T02:13:30.720Z,100981.34
2018-08-30T02:16:01.037Z,100977.67
2018-08-30T02:18:31.672Z,100972.98
2018-08-30T02:21:03.983Z,100972.41
2018-08-30T02:23:34.172Z,100966.39
2018-08-30T02:26:04.219Z,100964.06
2018-08-30T02:28:35.176Z,100960.20
2018-08-30T02:31:07.122Z,100963.72
2018-08-30T02:33:37.192Z,100974.95
2018-08-30T02:36:10.290Z,100981.57
2018-08-30T02:38:40.419Z,100977.70
2018-08-30T02:41:11.043Z,100985.23
2018-08-30T02:43:42.152Z,100986.97
2018-08-30T02:46:12.403Z,100996.79
2018-08-30T02:48:43.250Z,100983.05
2018-08-30T02:51:14.798Z,100981.81
2018-08-30T02:53:48.193Z,100987.44
2018-08-30T02:56:18.512Z,100984.55
2018-08-30T02:58:53.144Z,100992.21
2018-08-30T03:01:25.559Z,100994.00
2018-08-30T03:03:55.425Z,100984.20
2018-08-30T03:06:34.844Z,100980.98
2018-08-30T03:09:09.750Z,100984.93
2018-08-30T03:11:41.100Z,100984.20
2018-08-30T03:14:14.750Z,100984.50
2018-08-30T03:16:45.752Z,100982.52
2018-08-30T03:19:18.779Z,100988.45
2018-08-30T03:21:50.228Z,100991.42
2018-08-30T03:24:21.614Z,100989.92
2018-08-30T03:28:05.673Z,100993.19
2018-08-30T03:30:52.107Z,100995.39
2018-08-30T03:33:33.726Z,100990.98
2018-08-30T03:36:08.391Z,100995.89
2018-08-30T03:39:08.705Z,100994.66
2018-08-30T03:41:50.070Z,100999.30
2018-08-30T03:44:32.687Z,101002.30
2018-08-30T03:47:20.713Z,100997.95
2018-08-30T03:55:47.677Z,101006.09
2018-08-30T03:58:24.889Z,101010.55
2018-08-30T04:01:28.942Z,101012.16
2018-08-30T04:04:30.151Z,101020.10
2018-08-30T04:07:06.074Z,101022.61
2018-08-30T04:09:49.109Z,101021.14
2018-08-30T04:25:57.247Z,101029.41
2018-08-30T04:28:30.695Z,101022.16
2018-08-30T04:31:01.277Z,101020.03
2018-08-30T04:33:39.852Z,101024.60
2018-08-30T04:36:10.349Z,101023.52
2018-08-30T04:38:40.952Z,101037.16
2018-08-30T04:41:14.152Z,101028.28
2018-08-30T04:43:47.257Z,101037.08
2018-08-30T04:46:21.074Z,101038.62
2018-08-30T04:57:56.303Z,101051.22
2018-08-30T05:00:43.976Z,101046.73
2018-08-30T05:03:19.566Z,101049.59
2018-08-30T05:05:54.981Z,101052.80
2018-08-30T05:08:27.668Z,101046.41
2018-08-30T05:11:00.116Z,101047.34
2018-08-30T05:13:46.333Z,101054.55
2018-08-30T05:16:22.137Z,101052.58
2018-08-30T05:21:57.355Z,101068.06
2018-08-30T05:24:33.920Z,101066.59
2018-08-30T05:27:07.502Z,101068.45
2018-08-30T05:29:37.985Z,101064.19
2018-08-30T05:32:10.307Z,101060.59
2018-08-30T05:34:41.098Z,101061.78
2018-08-30T05:37:13.008Z,101064.93
2018-08-30T05:39:45.453Z,101072.80
2018-08-30T05:42:18.041Z,101057.88
2018-08-30T05:44:53.408Z,101061.94
2018-08-30T05:47:38.731Z,101056.12
2018-08-30T05:50:13.400Z,101065.55
2018-08-30T05:52:56.752Z,101067.37
2018-08-30T05:55:42.579Z,101069.42
2018-08-30T06:01:29.159Z,101068.27
2018-08-30T06:04:26.414Z,101068.92
2018-08-30T06:10:04.293Z,101060.48
2018-08-30T06:15:33.909Z,101067.45
2018-08-30T06:18:19.537Z,101068.92
2018-08-30T06:33:22.661Z,101064.38
2018-08-30T06:36:05.374Z,101069.00
2018-08-30T06:41:53.254Z,101064.08
2018-08-30T07:15:10.180Z,101098.55
2018-08-30T07:17:46.114Z,101104.16
2018-08-30T07:20:17.155Z,101097.77
2018-08-30T07:25:54.329Z,101110.11
2018-08-30T07:28:27.175Z,101110.78
2018-08-30T07:30:57.693Z,101115.50
2018-08-30T07:33:27.559Z,101115.12
2018-08-30T07:35:57.957Z,101118.61
2018-08-30T07:38:31.678Z,101122.28
2018-08-30T07:41:05.073Z,101122.33
2018-08-30T07:43:36.258Z,101121.80
2018-08-30T07:46:07.308Z,101121.88
2018-08-30T07:48:39.322Z,101124.52
2018-08-30T07:51:15.511Z,101129.13
2018-08-30T07:53:46.021Z,101128.20
2018-08-30T07:56:19.440Z,101129.13
2018-08-30T07:58:49.509Z,101125.67
2018-08-30T08:01:19.759Z,101131.21
2018-08-30T08:03:52.191Z,101139.82
2018-08-30T08:06:22.476Z,101136.86
2018-08-30T08:08:52.693Z,101137.12
2018-08-30T08:11:23.472Z,101133.56
2018-08-30T08:13:54.389Z,101141.83
2018-08-30T08:16:25.249Z,101138.58
2018-08-30T08:18:56.022Z,101141.09
2018-08-30T08:21:26.302Z,101140.48
2018-08-30T08:23:56.528Z,101145.36
2018-08-30T08:26:26.812Z,101149.82
2018-08-30T08:28:56.916Z,101147.53
2018-08-30T08:31:31.513Z,101151.68
2018-08-30T08:34:01.902Z,101153.66
2018-08-30T08:36:33.846Z,101156.68
2018-08-30T08:39:05.183Z,101156.61
2018-08-30T08:41:35.408Z,101152.88
2018-08-30T08:44:06.547Z,101157.38
2018-08-30T08:46:37.872Z,101161.38
2018-08-30T08:49:09.012Z,101163.89
2018-08-30T08:51:39.655Z,101166.10
2018-08-30T08:54:10.032Z,101166.13
2018-08-30T08:56:40.451Z,101170.28
2018-08-30T08:59:10.835Z,101171.45
2018-08-30T09:01:41.378Z,101171.91
2018-08-30T09:04:12.992Z,101174.62
2018-08-30T09:06:43.483Z,101175.24
2018-08-30T09:09:14.392Z,101175.67
2018-08-30T09:11:45.076Z,101173.57
2018-08-30T09:14:15.383Z,101169.53
2018-08-30T09:16:45.859Z,101175.01
2018-08-30T09:19:17.908Z,101178.56
2018-08-30T09:21:48.236Z,101179.45
2018-08-30T09:24:19.247Z,101181.05
2018-08-30T09:26:49.375Z,101177.99
2018-08-30T09:29:20.176Z,101175.28
2018-08-30T09:31:51.598Z,101186.31
2018-08-30T09:34:24.213Z,101191.96
2018-08-30T09:36:55.211Z,101195.39
2018-08-30T09:39:25.378Z,101188.81
2018-08-30T09:41:55.486Z,101194.92
2018-08-30T09:44:26.095Z,101190.58
2018-08-30T09:46:56.346Z,101197.54
2018-08-30T09:49:26.649Z,101201.72
2018-08-30T09:51:58.481Z,101201.99
2018-08-30T09:54:31.067Z,101208.44
2018-08-30T09:57:03.591Z,101207.97
2018-08-30T09:59:35.609Z,101211.88
2018-08-30T10:02:11.041Z,101212.83
2018-08-30T10:04:44.270Z,101217.18
2018-08-30T10:07:18.740Z,101222.27
2018-08-30T10:09:54.092Z,101217.91
2018-08-30T10:12:28.595Z,101217.91
2018-08-30T10:15:03.596Z,101223.63
2018-08-30T10:17:34.817Z,101220.69
2018-08-30T10:20:06.307Z,101228.58
2018-08-30T10:22:37.753Z,101224.91
2018-08-30T10:25:12.689Z,101226.70
2018-08-30T10:27:44.177Z,101229.38
2018-08-30T10:30:16.111Z,101228.88
2018-08-30T10:32:48.843Z,101227.52
2018-08-30T10:35:20.074Z,101231.77
2018-08-30T10:37:51.398Z,101228.38
2018-08-30T10:40:23.367Z,101231.66
2018-08-30T10:42:54.726Z,101234.77
2018-08-30T10:45:29.092Z,101229.55
2018-08-30T10:48:00.558Z,101242.31
2018-08-30T10:50:32.299Z,101237.28
2018-08-30T10:53:06.487Z,101236.22
2018-08-30T10:55:38.871Z,101240.67
2018-08-30T10:58:10.094Z,101244.23
2018-08-30T11:00:43.580Z,101251.11
2018-08-30T11:03:16.014Z,101252.70
2018-08-30T11:05:54.329Z,101252.81
2018-08-30T11:11:09.663Z,101271.09
2018-08-30T11:13:42.199Z,101267.92
2018-08-30T11:16:15.364Z,101269.27
2018-08-30T11:18:47.936Z,101268.38
2018-08-30T11:21:19.027Z,101271.48
2018-08-30T11:23:49.596Z,101282.03
2018-08-30T11:26:19.918Z,101281.55
2018-08-30T11:28:51.813Z,101273.80
2018-08-30T11:31:22.786Z,101281.93
2018-08-30T11:33:56.203Z,101279.91
2018-08-30T11:36:26.525Z,101289.77
2018-08-30T11:38:59.937Z,101291.98
2018-08-30T11:41:31.057Z,101288.67
2018-08-30T11:44:01.926Z,101300.86
2018-08-30T11:46:34.514Z,101301.73
2018-08-30T11:49:07.591Z,101299.79
2018-08-30T11:51:38.400Z,101305.30
2018-08-30T11:54:09.835Z,101315.45
2018-08-30T11:56:43.249Z,101311.30
2018-08-30T11:59:15.075Z,101324.73
2018-08-30T12:01:46.514Z,101330.50
2018-08-30T12:04:20.955Z,101333.61
2018-08-30T12:06:52.069Z,101333.20
2018-08-30T12:09:23.557Z,101328.69
2018-08-30T12:12:00.303Z,101332.12
2018-08-30T12:14:36.647Z,101331.36
2018-08-30T12:17:06.899Z,101340.27
2018-08-30T12:19:36.956Z,101328.66
2018-08-30T12:22:07.595Z,101333.80
2018-08-30T12:24:38.017Z,101341.13
2018-08-30T12:27:08.162Z,101339.11
2018-08-30T12:29:38.465Z,101341.52
2018-08-30T12:32:08.820Z,101351.38
2018-08-30T12:34:42.971Z,101350.33
2018-08-30T12:37:13.859Z,101361.71
2018-08-30T12:39:44.254Z,101354.58
2018-08-30T12:42:14.513Z,101367.71
2018-08-30T12:44:44.265Z,101369.56
2018-08-30T12:47:15.188Z,101374.73
2018-08-30T12:49:45.308Z,101375.33
2018-08-30T12:52:15.414Z,101373.78
2018-08-30T12:54:45.652Z,101380.08
2018-08-30T12:57:15.749Z,101371.87
2018-08-30T12:59:45.909Z,101382.59
2018-08-30T13:02:16.780Z,101377.67
2018-08-30T13:04:47.883Z,101385.69
2018-08-30T13:07:18.477Z,101385.50
2018-08-30T13:09:50.509Z,101389.25
2018-08-30T13:12:20.702Z,101384.70
2018-08-30T13:14:51.340Z,101390.77
2018-08-30T13:17:21.851Z,101390.11
2018-08-30T13:19:55.263Z,101390.50
2018-08-30T13:22:26.117Z,101397.36
2018-08-30T13:24:56.395Z,101399.48
2018-08-30T13:27:26.705Z,101403.53
2018-08-30T13:29:57.221Z,101408.08
2018-08-30T13:32:27.559Z,101421.45
2018-08-30T13:34:59.035Z,101414.84
2018-08-30T13:37:29.853Z,101412.69
2018-08-30T13:40:00.016Z,101428.62
2018-08-30T13:42:30.520Z,101431.72
2018-08-30T13:45:00.662Z,101433.53
2018-08-30T13:47:31.911Z,101436.33
2018-08-30T13:50:06.443Z,101445.12
2018-08-30T13:52:36.447Z,101434.66
2018-08-30T13:55:10.068Z,101445.88
2018-08-30T13:57:40.482Z,101442.92
2018-08-30T14:00:13.261Z,101445.17
2018-08-30T14:02:43.402Z,101450.39
2018-08-30T14:05:13.441Z,101455.15
2018-08-30T14:07:44.311Z,101463.66
2018-08-30T14:10:15.001Z,101462.29
2018-08-30T14:12:45.039Z,101468.84
2018-08-30T14:15:16.506Z,101467.30
2018-08-30T14:17:47.323Z,101466.84
2018-08-30T14:20:19.025Z,101476.09
2018-08-30T14:22:49.978Z,101476.61
2018-08-30T14:25:20.070Z,101477.80
2018-08-30T14:27:51.975Z,101473.72
2018-08-30T14:30:22.544Z,101488.03
2018-08-30T14:32:52.865Z,101476.52
2018-08-30T14:35:24.562Z,101478.58
2018-08-30T14:37:57.137Z,101488.31
2018-08-30T14:40:27.808Z,101492.25
2018-08-30T14:42:58.545Z,101493.59
2018-08-30T14:45:28.807Z,101503.03
2018-08-30T14:48:00.238Z,101499.73
2018-08-30T14:50:31.694Z,101504.07
2018-08-30T14:53:02.371Z,101506.16
2018-08-30T14:55:35.004Z,101503.64
2018-08-30T14:58:07.173Z,101512.27
2018-08-30T15:00:39.104Z,101517.09
2018-08-30T15:03:10.072Z,101520.11
2018-08-30T15:08:32.661Z,101529.05
2018-08-30T15:11:03.441Z,101529.53
2018-08-30T15:13:39.550Z,101532.23
2018-08-30T15:19:21.812Z,101529.48
2018-08-30T15:21:54.443Z,101537.95
2018-08-30T15:24:25.605Z,101532.23
2018-08-30T15:26:58.049Z,101541.33
2018-08-30T15:32:16.744Z,101550.27
2018-08-30T15:34:50.216Z,101550.32
2018-08-30T15:37:32.227Z,101560.95
2018-08-30T15:40:04.832Z,101558.92
2018-08-30T15:42:38.998Z,101556.89
2018-08-30T15:45:12.613Z,101561.57
2018-08-30T15:47:48.374Z,101557.86
2018-08-30T15:50:21.373Z,101562.95
2018-08-30T15:52:52.343Z,101560.20
2018-08-30T15:55:26.649Z,101564.93
2018-08-30T15:57:58.503Z,101563.27
2018-08-30T16:00:42.673Z,101568.22
2018-08-30T16:03:29.150Z,101568.31
2018-08-30T16:06:04.704Z,101574.16
2018-08-30T16:08:38.965Z,101576.23
2018-08-30T16:11:12.994Z,101577.80
2018-08-30T16:13:43.986Z,101581.71
2018-08-30T16:16:20.114Z,101584.26
2018-08-30T16:18:52.627Z,101573.77
2018-08-30T16:21:24.308Z,101573.95
2018-08-30T16:23:56.060Z,101575.52
2018-08-30T16:26:29.638Z,101570.94
2018-08-30T16:29:05.706Z,101574.00
2018-08-30T16:31:38.686Z,101577.88
2018-08-30T16:34:12.057Z,101571.83
2018-08-30T16:36:47.920Z,101573.17
2018-08-30T16:39:21.139Z,101568.72
2018-08-30T16:41:53.784Z,101569.88
2018-08-30T16:44:26.597Z,101565.77
2018-08-30T16:47:07.885Z,101567.70
2018-08-30T16:49:39.623Z,101570.34
2018-08-30T16:52:11.626Z,101573.54
2018-08-30T16:54:42.858Z,101569.77
2018-08-30T16:57:16.959Z,101569.24
2018-08-30T16:59:59.080Z,101572.16
2018-08-30T17:02:40.566Z,101578.89
2018-08-30T17:08:32.840Z,101575.17
2018-08-30T17:11:18.330Z,101587.98
2018-08-30T17:14:18.190Z,101586.80
2018-08-30T17:16:49.844Z,101589.00
2018-08-30T17:19:28.608Z,101593.58
2018-08-30T17:22:05.578Z,101586.17
2018-08-30T17:24:36.542Z,101586.82
2018-08-30T17:27:14.378Z,101588.36
2018-08-30T17:29:59.071Z,101588.27
2018-08-30T17:32:33.942Z,101593.00
2018-08-30T17:35:09.953Z,101591.12
2018-08-30T17:37:42.933Z,101590.81
2018-08-30T17:40:14.579Z,101593.24
2018-08-30T17:42:55.425Z,101595.98
2018-08-30T17:45:29.648Z,101597.73
2018-08-30T17:48:04.089Z,101607.26
2018-08-30T17:50:36.953Z,101602.77
2018-08-30T17:53:10.836Z,101601.91
2018-08-30T17:55:43.025Z,101603.66
2018-08-30T18:01:27.009Z,101607.96
2018-08-30T18:04:16.539Z,101616.45
2018-08-30T18:09:48.897Z,101622.48
2018-08-30T18:15:16.773Z,101628.04
2018-08-30T18:17:51.304Z,101627.52
2018-08-30T18:20:23.447Z,101634.97
2018-08-30T18:23:11.490Z,101630.05
2018-08-30T18:25:43.868Z,101643.27
2018-08-30T18:28:22.599Z,101645.80
2018-08-30T18:30:55.219Z,101645.49
2018-08-30T18:33:28.378Z,101650.27
2018-08-30T18:36:09.336Z,101655.63
2018-08-30T18:38:45.140Z,101656.77
2018-08-30T18:41:19.250Z,101660.73
2018-08-30T18:43:50.031Z,101664.78
2018-08-30T18:46:24.808Z,101668.95
2018-08-30T18:48:58.723Z,101672.47
2018-08-30T18:51:30.582Z,101676.97
2018-08-30T18:54:01.318Z,101678.44
2018-08-30T18:56:38.597Z,101683.52
2018-08-30T18:59:12.206Z,101680.03
2018-08-30T19:01:51.637Z,101685.20
2018-08-30T19:04:35.611Z,101682.01
2018-08-30T19:09:54.799Z,101685.25
2018-08-30T19:15:12.533Z,101693.11
2018-08-30T19:17:52.748Z,101700.27
2018-08-30T19:20:35.246Z,101697.27
2018-08-30T19:23:07.822Z,101697.48
2018-08-30T19:28:24.300Z,101704.07
2018-08-30T19:31:02.902Z,101708.37
2018-08-30T19:33:38.694Z,101708.36
2018-08-30T19:36:20.091Z,101710.98
2018-08-30T19:39:17.310Z,101722.28
2018-08-30T19:42:00.086Z,101714.31
2018-08-30T19:44:33.439Z,101714.31
2018-08-30T19:47:04.122Z,101715.58
2018-08-30T19:49:35.447Z,101721.63
2018-08-30T19:52:06.321Z,101723.11
2018-08-30T19:54:37.055Z,101723.67
2018-08-30T19:57:08.289Z,101729.20
2018-08-30T19:59:38.749Z,101726.13
2018-08-30T20:02:08.907Z,101735.33
2018-08-30T20:04:39.228Z,101731.89
2018-08-30T20:07:10.418Z,101734.75
2018-08-30T20:09:42.551Z,101735.03
2018-08-30T20:12:12.886Z,101737.03
2018-08-30T20:14:43.213Z,101747.41
2018-08-30T20:17:14.241Z,101750.34
2018-08-30T20:19:52.552Z,101753.57
2018-08-30T20:28:06.997Z,101758.79
2018-08-30T20:30:38.490Z,101760.06
2018-08-30T20:33:09.055Z,101763.85
2018-08-30T20:35:40.611Z,101771.34
2018-08-30T20:38:17.206Z,101766.22
2018-08-30T20:40:49.213Z,101770.77
2018-08-30T20:46:13.006Z,101778.17
2018-08-30T20:48:48.134Z,101773.11
2018-08-30T20:51:20.559Z,101773.38
2018-08-30T20:53:55.049Z,101775.06
2018-08-30T20:56:29.080Z,101780.03
2018-08-30T20:59:00.014Z,101779.30
2018-08-30T21:01:30.342Z,101780.13
2018-08-30T21:04:03.745Z,101784.43
2018-08-30T21:06:37.161Z,101785.44
2018-08-30T21:09:13.089Z,101786.61
2018-08-30T21:11:43.514Z,101789.88
2018-08-30T21:14:13.901Z,101792.06
2018-08-30T21:16:45.239Z,101793.20
2018-08-30T21:19:15.924Z,101791.33
2018-08-30T21:21:46.754Z,101788.45
2018-08-30T21:34:07.880Z,101791.00
2018-08-30T21:36:57.724Z,101795.34
2018-08-30T21:39:30.420Z,101793.73
2018-08-30T21:42:05.092Z,101797.21
2018-08-30T21:50:40.515Z,101803.86
2018-08-30T21:53:14.350Z,101800.61
2018-08-30T21:55:47.708Z,101804.65
2018-08-30T21:58:17.978Z,101801.94
2018-08-30T22:00:48.162Z,101799.43
2018-08-30T22:03:18.285Z,101801.45
2018-08-30T22:05:48.501Z,101804.20
2018-08-30T22:08:18.823Z,101809.08
2018-08-30T22:10:49.118Z,101804.53
2018-08-30T22:13:19.310Z,101810.35
2018-08-30T22:15:52.253Z,101805.63
2018-08-30T22:18:22.409Z,101803.73
2018-08-30T22:20:56.793Z,101798.98
2018-08-30T22:23:28.138Z,101807.59
2018-08-30T22:25:58.770Z,101803.61
2018-08-30T22:28:30.695Z,101805.28
2018-08-30T22:31:00.980Z,101805.02
2018-08-30T22:33:31.192Z,101809.41
2018-08-30T22:36:04.300Z,101806.45
2018-08-30T22:38:38.773Z,101816.06
2018-08-30T22:41:11.285Z,101807.84
2018-08-30T22:43:44.888Z,101810.81
2018-08-30T22:46:19.507Z,101811.89
2018-08-30T22:50:08.572Z,101810.60
2018-08-30T22:52:42.998Z,101808.27
2018-08-30T22:55:13.938Z,101814.09
2018-08-30T22:57:46.391Z,101822.31
2018-08-30T23:00:16.835Z,101817.31
2018-08-30T23:02:47.205Z,101823.91
2018-08-30T23:05:17.281Z,101824.98
2018-08-30T23:07:49.658Z,101825.64
2018-08-30T23:10:21.314Z,101823.64
2018-08-30T23:12:52.118Z,101817.56
2018-08-30T23:15:22.570Z,101817.28
2018-08-30T23:17:53.713Z,101824.53
2018-08-30T23:20:24.351Z,101829.57
2018-08-30T23:22:57.236Z,101818.45
2018-08-30T23:25:30.433Z,101824.05
2018-08-30T23:28:00.751Z,101815.31
2018-08-30T23:30:31.132Z,101815.52
2018-08-30T23:33:03.669Z,101812.35
2018-08-30T23:35:34.160Z,101816.84
2018-08-30T23:38:04.943Z,101811.80
2018-08-30T23:40:35.793Z,101818.83
2018-08-30T23:43:06.108Z,101812.58
2018-08-30T23:45:38.366Z,101815.03
2018-08-30T23:48:11.199Z,101830.09
2018-08-30T23:50:42.889Z,101817.83
2018-08-30T23:53:14.459Z,101818.52
2018-08-30T23:55:48.087Z,101827.17
2018-08-30T23:58:35.339Z,101819.33
